createdAt,value
2018-08-18T00:00:09.565Z,21.69
2018-08-18T00:02:38.808Z,21.73
2018-08-18T00:05:08.562Z,21.67
2018-08-18T00:07:36.647Z,21.62
2018-08-18T00:10:06.935Z,21.60
2018-08-18T00:12:35.027Z,21.66
2018-08-18T00:15:03.166Z,21.58
2018-08-18T00:17:31.253Z,21.58
2018-08-18T00:19:59.340Z,21.60
2018-08-18T00:22:27.407Z,21.59
2018-08-18T00:24:58.019Z,21.58
2018-08-18T00:27:26.699Z,21.52
2018-08-18T00:30:00.082Z,21.55
2018-08-18T00:32:28.177Z,21.51
2018-08-18T00:34:56.254Z,21.49
2018-08-18T00:37:25.430Z,21.50
2018-08-18T00:39:54.764Z,21.43
2018-08-18T00:42:23.307Z,21.42
2018-08-18T00:44:51.379Z,21.32
2018-08-18T00:47:19.463Z,21.26
2018-08-18T00:49:47.550Z,21.24
2018-08-18T00:52:15.679Z,21.31
2018-08-18T00:54:43.789Z,21.31
2018-08-18T00:57:24.279Z,21.21
2018-08-18T00:59:53.035Z,21.25
2018-08-18T01:02:21.119Z,21.20
2018-08-18T01:04:55.206Z,21.15
2018-08-18T01:07:23.586Z,21.13
2018-08-18T01:09:51.778Z,21.21
2018-08-18T01:12:19.969Z,21.14
2018-08-18T01:14:47.996Z,21.22
2018-08-18T01:17:16.059Z,21.11
2018-08-18T01:19:44.132Z,21.01
2018-08-18T01:22:12.246Z,21.07
2018-08-18T01:24:40.335Z,21.01
2018-08-18T01:27:08.472Z,21.08
2018-08-18T01:29:36.556Z,21.00
2018-08-18T01:32:04.687Z,21.04
2018-08-18T01:34:32.742Z,21.04
2018-08-18T01:37:11.090Z,20.97
2018-08-18T01:39:39.202Z,20.97
2018-08-18T01:42:07.285Z,20.92
2018-08-18T01:44:35.360Z,20.82
2018-08-18T01:47:07.716Z,20.82
2018-08-18T01:49:36.681Z,20.90
2018-08-18T01:52:13.262Z,20.94
2018-08-18T01:54:41.668Z,20.95
2018-08-18T01:57:11.757Z,20.94
2018-08-18T01:59:41.132Z,20.80
2018-08-18T02:02:12.455Z,20.82
2018-08-18T02:04:40.595Z,20.87
2018-08-18T02:07:25.027Z,20.66
2018-08-18T02:09:53.414Z,20.74
2018-08-18T02:12:22.327Z,20.67
2018-08-18T02:14:50.419Z,20.73
2018-08-18T02:17:23.607Z,20.58
2018-08-18T02:19:52.088Z,20.60
2018-08-18T02:22:20.448Z,20.60
2018-08-18T02:24:48.517Z,20.56
2018-08-18T02:27:16.651Z,20.68
2018-08-18T02:29:54.799Z,20.52
2018-08-18T02:32:29.471Z,20.51
2018-08-18T02:34:57.768Z,20.47
2018-08-18T02:37:26.673Z,20.42
2018-08-18T02:39:54.952Z,20.43
2018-08-18T02:42:22.973Z,20.42
2018-08-18T02:44:51.243Z,20.34
2018-08-18T02:47:19.336Z,20.25
2018-08-18T02:49:48.653Z,20.29
2018-08-18T02:52:21.749Z,20.16
2018-08-18T02:54:58.483Z,20.09
2018-08-18T02:57:32.729Z,19.91
2018-08-18T03:00:02.785Z,19.70
2018-08-18T03:02:30.872Z,19.42
2018-08-18T03:04:58.970Z,19.35
2018-08-18T03:07:31.007Z,19.42
2018-08-18T03:09:59.103Z,19.39
2018-08-18T03:12:32.569Z,19.36
2018-08-18T03:15:00.639Z,19.39
2018-08-18T03:17:28.721Z,19.67
2018-08-18T03:19:56.784Z,19.68
2018-08-18T03:22:29.051Z,19.47
2018-08-18T03:24:57.161Z,19.25
2018-08-18T03:27:25.233Z,18.91
2018-08-18T03:29:53.299Z,18.95
2018-08-18T03:32:22.047Z,18.71
2018-08-18T03:34:50.142Z,18.70
2018-08-18T03:37:27.883Z,18.64
2018-08-18T03:39:56.243Z,18.66
2018-08-18T03:42:29.984Z,18.55
2018-08-18T03:44:58.067Z,18.66
2018-08-18T03:47:26.413Z,18.34
2018-08-18T03:49:54.535Z,18.05
2018-08-18T03:52:22.605Z,18.26
2018-08-18T03:54:50.683Z,18.35
2018-08-18T03:57:18.777Z,18.15
2018-08-18T03:59:46.889Z,17.88
2018-08-18T04:02:14.950Z,17.82
2018-08-18T04:04:43.021Z,17.76
2018-08-18T04:07:11.132Z,17.76
2018-08-18T04:09:39.650Z,17.77
2018-08-18T04:12:09.103Z,17.58
2018-08-18T04:14:39.194Z,17.52
2018-08-18T04:17:38.943Z,17.50
2018-08-18T04:20:07.167Z,17.37
2018-08-18T04:22:35.316Z,17.50
2018-08-18T04:25:03.449Z,17.31
2018-08-18T04:27:39.991Z,17.43
2018-08-18T04:30:12.170Z,17.33
2018-08-18T04:32:50.483Z,17.50
2018-08-18T04:35:20.075Z,17.54
2018-08-18T04:37:48.146Z,17.45
2018-08-18T04:40:16.305Z,17.31
2018-08-18T04:42:44.387Z,17.30
2018-08-18T04:45:14.129Z,17.43
2018-08-18T04:47:42.222Z,17.45
2018-08-18T04:50:10.340Z,17.35
2018-08-18T04:52:38.565Z,17.20
2018-08-18T04:55:06.643Z,17.14
2018-08-18T04:57:34.712Z,17.23
2018-08-18T05:00:02.776Z,17.31
2018-08-18T05:02:30.866Z,17.50
2018-08-18T05:04:59.062Z,17.60
2018-08-18T05:07:35.440Z,17.66
2018-08-18T05:10:03.553Z,17.74
2018-08-18T05:12:31.645Z,17.75
2018-08-18T05:14:59.776Z,17.81
2018-08-18T05:17:27.859Z,17.81
2018-08-18T05:20:14.460Z,17.76
2018-08-18T05:22:42.563Z,17.82
2018-08-18T05:25:10.667Z,17.77
2018-08-18T05:27:38.934Z,17.86
2018-08-18T05:30:08.149Z,17.98
2018-08-18T05:32:37.472Z,18.12
2018-08-18T05:35:06.318Z,18.23
2018-08-18T05:37:34.509Z,18.33
2018-08-18T05:40:02.801Z,18.43
2018-08-18T05:42:31.828Z,18.49
2018-08-18T05:45:05.729Z,18.64
2018-08-18T05:47:34.363Z,18.74
2018-08-18T05:50:02.622Z,18.86
2018-08-18T05:52:31.035Z,18.98
2018-08-18T05:55:02.136Z,19.18
2018-08-18T05:57:30.376Z,19.43
2018-08-18T05:59:58.607Z,19.57
2018-08-18T06:02:27.701Z,19.82
2018-08-18T06:04:57.818Z,20.00
2018-08-18T06:07:26.083Z,20.30
2018-08-18T06:09:54.478Z,20.42
2018-08-18T06:12:22.778Z,20.70
2018-08-18T06:14:50.998Z,20.84
2018-08-18T06:17:25.292Z,20.94
2018-08-18T06:19:54.965Z,21.10
2018-08-18T06:22:23.582Z,21.16
2018-08-18T06:24:52.245Z,21.26
2018-08-18T06:27:21.426Z,21.40
2018-08-18T06:29:50.587Z,21.42
2018-08-18T06:32:18.890Z,21.49
2018-08-18T06:34:47.120Z,21.53
2018-08-18T06:37:15.084Z,21.52
2018-08-18T06:39:54.100Z,21.62
2018-08-18T06:42:34.019Z,21.76
2018-08-18T06:45:02.076Z,21.84
2018-08-18T06:47:30.499Z,21.92
2018-08-18T06:50:00.317Z,21.85
2018-08-18T06:52:30.043Z,21.92
2018-08-18T06:55:08.488Z,21.93
2018-08-18T06:57:43.884Z,21.92
2018-08-18T07:00:14.139Z,22.09
2018-08-18T07:02:42.398Z,22.13
2018-08-18T07:05:12.184Z,22.06
2018-08-18T07:07:41.408Z,22.16
2018-08-18T07:10:23.246Z,22.18
2018-08-18T07:12:53.700Z,22.18
2018-08-18T07:15:24.163Z,22.19
2018-08-18T07:17:52.750Z,22.17
2018-08-18T07:20:22.457Z,22.29
2018-08-18T07:22:51.207Z,22.42
2018-08-18T07:25:19.624Z,22.47
2018-08-18T07:27:49.382Z,22.46
2018-08-18T07:30:17.683Z,22.53
2018-08-18T07:32:46.385Z,22.51
2018-08-18T07:39:50.761Z,22.56
2018-08-18T07:42:18.948Z,22.68
2018-08-18T07:44:47.071Z,22.76
2018-08-18T07:47:16.485Z,22.68
2018-08-18T07:49:44.574Z,22.73
2018-08-18T07:52:12.663Z,22.72
2018-08-18T07:54:40.736Z,22.73
2018-08-18T07:57:08.824Z,22.66
2018-08-18T07:59:36.916Z,22.67
2018-08-18T08:02:04.989Z,22.65
2018-08-18T08:04:33.052Z,22.73
2018-08-18T08:07:01.140Z,22.65
2018-08-18T08:09:30.266Z,22.66
2018-08-18T08:11:58.399Z,22.73
2018-08-18T08:14:26.515Z,22.86
2018-08-18T08:16:54.651Z,22.93
2018-08-18T08:19:22.751Z,23.02
2018-08-18T08:21:51.117Z,23.08
2018-08-18T08:24:19.211Z,23.18
2018-08-18T08:26:47.334Z,23.19
2018-08-18T08:29:15.416Z,23.18
2018-08-18T08:31:43.601Z,23.18
2018-08-18T08:34:11.707Z,23.07
2018-08-18T08:36:39.837Z,23.06
2018-08-18T08:39:07.935Z,23.11
2018-08-18T08:41:36.008Z,23.23
2018-08-18T08:44:04.113Z,23.18
2018-08-18T08:46:32.215Z,23.21
2018-08-18T08:49:01.145Z,23.31
2018-08-18T08:51:29.319Z,23.34
2018-08-18T08:53:58.532Z,23.32
2018-08-18T08:56:34.707Z,23.35
2018-08-18T08:59:03.038Z,23.44
2018-08-18T09:01:31.136Z,23.46
2018-08-18T09:03:59.225Z,23.51
2018-08-18T09:06:27.340Z,23.57
2018-08-18T09:08:59.299Z,23.63
2018-08-18T09:11:28.620Z,23.57
2018-08-18T09:14:03.684Z,23.71
2018-08-18T09:16:32.834Z,23.74
2018-08-18T09:19:00.948Z,23.66
2018-08-18T09:21:31.996Z,23.84
2018-08-18T09:24:00.059Z,23.85
2018-08-18T09:26:28.193Z,23.74
2018-08-18T09:28:56.255Z,23.57
2018-08-18T09:31:24.330Z,23.62
2018-08-18T09:33:52.520Z,23.86
2018-08-18T09:36:20.774Z,24.01
2018-08-18T09:38:48.704Z,24.14
2018-08-18T09:41:16.808Z,24.13
2018-08-18T09:43:44.936Z,24.28
2018-08-18T09:46:13.014Z,24.22
2018-08-18T09:48:41.135Z,24.27
2018-08-18T09:51:09.220Z,24.23
2018-08-18T09:53:37.336Z,24.20
2018-08-18T09:56:05.436Z,24.22
2018-08-18T09:58:33.575Z,24.32
2018-08-18T10:01:01.707Z,24.24
2018-08-18T10:03:29.921Z,24.19
2018-08-18T10:05:58.164Z,24.42
2018-08-18T10:08:26.287Z,24.49
2018-08-18T10:10:54.421Z,24.48
2018-08-18T10:13:22.504Z,24.49
2018-08-18T10:15:50.661Z,24.61
2018-08-18T10:18:18.759Z,24.66
2018-08-18T10:20:49.737Z,24.82
2018-08-18T10:23:17.921Z,24.70
2018-08-18T10:25:46.424Z,24.77
2018-08-18T10:28:14.599Z,24.76
2018-08-18T10:30:42.689Z,24.85
2018-08-18T10:33:10.861Z,24.80
2018-08-18T10:35:38.968Z,24.64
2018-08-18T10:38:07.160Z,24.88
2018-08-18T10:40:35.262Z,25.03
2018-08-18T10:43:03.352Z,25.06
2018-08-18T10:45:31.433Z,25.15
2018-08-18T10:47:59.564Z,25.26
2018-08-18T10:51:37.455Z,25.40
2018-08-18T10:54:05.491Z,25.60
2018-08-18T10:56:33.614Z,25.69
2018-08-18T10:59:16.109Z,25.66
2018-08-18T11:01:59.647Z,25.91
2018-08-18T11:04:28.693Z,25.92
2018-08-18T11:06:56.876Z,25.85
2018-08-18T11:09:25.033Z,25.67
2018-08-18T11:11:53.143Z,25.68
2018-08-18T11:14:21.571Z,25.65
2018-08-18T11:16:49.665Z,25.84
2018-08-18T11:19:20.823Z,26.05
2018-08-18T11:21:58.980Z,26.17
2018-08-18T11:24:27.099Z,26.23
2018-08-18T11:26:55.191Z,26.25
2018-08-18T11:29:23.303Z,26.41
2018-08-18T11:31:51.413Z,26.52
2018-08-18T11:34:19.516Z,26.54
2018-08-18T11:37:00.836Z,26.62
2018-08-18T11:39:30.148Z,26.67
2018-08-18T11:41:59.028Z,26.62
2018-08-18T11:44:27.149Z,26.49
2018-08-18T11:46:55.266Z,26.34
2018-08-18T11:49:23.387Z,26.40
2018-08-18T11:51:51.493Z,26.39
2018-08-18T11:54:19.626Z,26.34
2018-08-18T11:56:54.900Z,26.52
2018-08-18T11:59:22.996Z,26.41
2018-08-18T12:01:56.030Z,26.53
2018-08-18T12:04:24.280Z,26.75
2018-08-18T12:06:57.876Z,26.60
2018-08-18T12:09:26.069Z,26.64
2018-08-18T12:11:54.208Z,26.72
2018-08-18T12:14:22.400Z,26.78
2018-08-18T12:16:50.778Z,26.84
2018-08-18T12:19:18.912Z,26.84
2018-08-18T12:21:47.516Z,27.03
2018-08-18T12:24:17.255Z,27.04
2018-08-18T12:27:17.111Z,27.06
2018-08-18T12:29:45.275Z,27.07
2018-08-18T12:32:18.331Z,27.01
2018-08-18T12:34:46.498Z,27.04
2018-08-18T12:37:15.231Z,27.07
2018-08-18T12:39:43.232Z,27.26
2018-08-18T12:42:15.472Z,27.55
2018-08-18T12:44:43.571Z,27.81
2018-08-18T12:47:11.647Z,27.88
2018-08-18T12:49:39.821Z,27.75
2018-08-18T12:54:42.329Z,27.63
2018-08-18T12:57:10.424Z,27.82
2018-08-18T12:59:38.523Z,27.88
2018-08-18T13:02:06.680Z,27.91
2018-08-18T13:04:34.747Z,27.91
2018-08-18T13:07:02.935Z,27.85
2018-08-18T13:09:31.011Z,27.72
2018-08-18T13:12:01.079Z,27.79
2018-08-18T13:14:30.443Z,27.95
2018-08-18T13:16:58.504Z,28.14
2018-08-18T13:19:32.988Z,28.20
2018-08-18T13:22:01.117Z,28.05
2018-08-18T13:24:30.952Z,28.03
2018-08-18T13:26:59.546Z,28.10
2018-08-18T13:29:27.654Z,28.02
2018-08-18T13:31:55.840Z,27.86
2018-08-18T13:34:23.963Z,27.97
2018-08-18T13:36:52.027Z,27.95
2018-08-18T13:39:20.727Z,27.97
2018-08-18T13:41:49.903Z,27.97
2018-08-18T13:44:28.728Z,27.95
2018-08-18T13:46:56.812Z,28.19
2018-08-18T13:49:25.870Z,28.31
2018-08-18T13:51:54.029Z,28.32
2018-08-18T13:54:22.199Z,28.20
2018-08-18T13:56:50.356Z,28.18
2018-08-18T13:59:44.323Z,28.25
2018-08-18T14:02:12.493Z,28.27
2018-08-18T14:04:41.452Z,28.27
2018-08-18T14:07:09.998Z,28.28
2018-08-18T14:09:38.311Z,28.29
2018-08-18T14:12:11.690Z,28.56
2018-08-18T14:14:39.770Z,28.68
2018-08-18T14:17:07.868Z,28.69
2018-08-18T14:19:35.980Z,28.66
2018-08-18T14:22:07.978Z,28.66
2018-08-18T14:24:37.127Z,28.85
2018-08-18T14:27:11.382Z,28.88
2018-08-18T14:29:39.459Z,28.94
2018-08-18T14:32:13.099Z,29.00
2018-08-18T14:34:41.219Z,29.05
2018-08-18T14:37:12.743Z,28.99
2018-08-18T14:39:42.244Z,29.00
2018-08-18T14:42:10.590Z,28.82
2018-08-18T14:44:42.607Z,28.87
2018-08-18T14:47:10.756Z,28.82
2018-08-18T14:49:38.928Z,28.81
2018-08-18T14:52:07.128Z,28.67
2018-08-18T14:54:35.318Z,28.66
2018-08-18T14:57:04.196Z,28.83
2018-08-18T14:59:33.682Z,28.83
2018-08-18T15:02:03.084Z,28.80
2018-08-18T15:04:31.488Z,28.84
2018-08-18T15:06:59.730Z,28.89
2018-08-18T15:09:37.121Z,28.95
2018-08-18T15:12:05.399Z,29.10
2018-08-18T15:14:33.590Z,29.09
2018-08-18T15:17:01.787Z,29.03
2018-08-18T15:19:30.005Z,28.99
2018-08-18T15:21:59.892Z,28.97
2018-08-18T15:24:28.073Z,28.92
2018-08-18T15:26:56.280Z,28.90
2018-08-18T15:29:24.474Z,28.97
2018-08-18T15:31:55.508Z,29.14
2018-08-18T15:34:23.631Z,29.03
2018-08-18T15:36:51.723Z,28.86
2018-08-18T15:39:19.819Z,29.02
2018-08-18T15:41:47.899Z,29.16
2018-08-18T15:44:15.986Z,29.13
2018-08-18T15:46:44.081Z,29.11
2018-08-18T15:49:13.040Z,29.05
2018-08-18T15:51:41.285Z,29.05
2018-08-18T15:54:09.481Z,28.97
2018-08-18T15:56:37.626Z,28.92
2018-08-18T15:59:05.812Z,29.01
2018-08-18T16:01:35.007Z,29.00
2018-08-18T16:04:03.922Z,28.98
2018-08-18T16:06:32.063Z,28.97
2018-08-18T16:09:00.152Z,28.79
2018-08-18T16:11:28.229Z,28.85
2018-08-18T16:13:56.443Z,28.89
2018-08-18T16:16:24.439Z,28.97
2018-08-18T16:19:00.363Z,28.78
2018-08-18T16:21:29.338Z,28.73
2018-08-18T16:23:57.432Z,28.67
2018-08-18T16:26:25.575Z,28.95
2018-08-18T16:28:53.686Z,29.01
2018-08-18T16:31:21.764Z,28.79
2018-08-18T16:33:51.377Z,28.86
2018-08-18T16:36:19.448Z,28.95
2018-08-18T16:38:47.579Z,28.81
2018-08-18T16:41:15.626Z,28.90
2018-08-18T16:43:43.700Z,28.88
2018-08-18T16:46:36.288Z,28.86
2018-08-18T16:49:04.380Z,28.82
2018-08-18T16:51:32.444Z,28.83
2018-08-18T16:54:18.040Z,28.70
2018-08-18T16:56:46.100Z,28.63
2018-08-18T16:59:14.165Z,28.65
2018-08-18T17:01:42.232Z,28.59
2018-08-18T17:04:12.132Z,28.50
2018-08-18T17:06:40.258Z,28.46
2018-08-18T17:09:08.672Z,28.36
2018-08-18T17:11:36.783Z,28.30
2018-08-18T17:14:09.509Z,28.17
2018-08-18T17:16:37.660Z,28.13
2018-08-18T17:19:05.693Z,28.18
2018-08-18T17:21:33.801Z,28.16
2018-08-18T17:24:01.928Z,28.16
2018-08-18T17:26:30.040Z,28.05
2018-08-18T17:28:58.203Z,28.07
2018-08-18T17:31:26.290Z,28.05
2018-08-18T17:33:54.367Z,27.95
2018-08-18T17:36:22.452Z,27.84
2018-08-18T17:38:50.584Z,27.79
2018-08-18T17:41:18.696Z,27.78
2018-08-18T17:43:46.811Z,27.85
2018-08-18T17:46:14.973Z,27.65
2018-08-18T17:48:48.411Z,27.62
2018-08-18T17:51:16.487Z,27.52
2018-08-18T17:53:48.759Z,27.43
2018-08-18T17:56:16.870Z,27.40
2018-08-18T17:58:44.954Z,27.32
2018-08-18T18:01:13.084Z,27.23
2018-08-18T18:03:41.163Z,27.12
2018-08-18T18:06:09.228Z,26.92
2018-08-18T18:08:37.491Z,26.90
2018-08-18T18:11:05.569Z,26.91
2018-08-18T18:13:35.228Z,26.80
2018-08-18T18:16:08.460Z,26.81
2018-08-18T18:18:41.900Z,26.84
2018-08-18T18:21:10.035Z,26.87
2018-08-18T18:23:38.208Z,26.61
2018-08-18T18:26:06.796Z,26.55
2018-08-18T18:28:34.911Z,26.55
2018-08-18T18:31:02.989Z,26.43
2018-08-18T18:33:31.132Z,26.43
2018-08-18T18:35:59.224Z,26.35
2018-08-18T18:38:27.413Z,26.10
2018-08-18T18:40:55.500Z,26.03
2018-08-18T18:43:23.567Z,26.05
2018-08-18T18:45:53.072Z,25.77
2018-08-18T18:48:21.119Z,25.56
2018-08-18T18:50:49.578Z,25.56
2018-08-18T18:53:17.689Z,25.37
2018-08-18T18:55:52.103Z,25.38
2018-08-18T18:58:20.187Z,25.31
2018-08-18T19:00:51.709Z,25.19
2018-08-18T19:03:19.797Z,25.01
2018-08-18T19:05:48.386Z,24.97
2018-08-18T19:08:17.790Z,24.96
2018-08-18T19:10:45.985Z,24.53
2018-08-18T19:13:14.078Z,24.42
2018-08-18T19:15:42.324Z,24.19
2018-08-18T19:18:11.098Z,24.11
2018-08-18T19:20:39.182Z,24.04
2018-08-18T19:23:12.735Z,23.80
2018-08-18T19:25:42.088Z,23.52
2018-08-18T19:28:12.092Z,23.44
2018-08-18T19:30:40.179Z,23.38
2018-08-18T19:33:08.463Z,23.34
2018-08-18T19:35:41.313Z,23.31
2018-08-18T19:38:09.425Z,23.16
2018-08-18T19:40:38.593Z,22.93
2018-08-18T19:43:10.458Z,22.60
2018-08-18T19:45:38.542Z,22.49
2018-08-18T19:48:06.658Z,22.42
2018-08-18T19:50:34.748Z,22.16
2018-08-18T19:53:08.087Z,22.23
2018-08-18T19:55:36.200Z,22.17
2018-08-18T19:58:04.343Z,22.13
2018-08-18T20:00:32.423Z,22.07
2018-08-18T20:03:03.479Z,22.00
2018-08-18T20:05:31.548Z,21.92
2018-08-18T20:07:59.606Z,21.85
2018-08-18T20:10:27.699Z,21.69
2018-08-18T20:12:55.794Z,21.55
2018-08-18T20:15:23.931Z,21.42
2018-08-18T20:17:52.034Z,21.32
2018-08-18T20:20:22.024Z,21.21
2018-08-18T20:22:50.247Z,21.09
2018-08-18T20:25:18.556Z,21.09
2018-08-18T20:27:46.856Z,21.11
2018-08-18T20:30:15.563Z,21.19
2018-08-18T20:32:43.782Z,20.89
2018-08-18T20:35:13.156Z,20.92
2018-08-18T20:37:41.408Z,20.86
2018-08-18T20:40:13.205Z,20.74
2018-08-18T20:42:43.588Z,20.61
2018-08-18T20:45:12.405Z,20.50
2018-08-18T20:50:29.585Z,20.24
2018-08-18T20:53:05.955Z,20.20
2018-08-18T20:55:34.790Z,20.09
2018-08-18T20:58:03.190Z,20.12
2018-08-18T21:00:31.437Z,20.11
2018-08-18T21:02:59.686Z,19.95
2018-08-18T21:05:28.033Z,19.85
2018-08-18T21:11:15.184Z,19.93
2018-08-18T21:13:46.991Z,19.71
2018-08-18T21:16:15.420Z,19.53
2018-08-18T21:18:47.067Z,19.53
2018-08-18T21:21:31.962Z,19.40
2018-08-18T21:24:00.170Z,19.51
2018-08-18T21:26:28.566Z,19.17
2018-08-18T21:28:57.530Z,19.03
2018-08-18T21:31:58.787Z,19.09
2018-08-18T21:34:35.046Z,19.06
2018-08-18T21:37:07.981Z,19.07
2018-08-18T21:39:38.951Z,18.93
2018-08-18T21:42:07.192Z,18.90
2018-08-18T21:47:46.566Z,19.04
2018-08-18T21:50:14.994Z,18.88
2018-08-18T21:52:43.153Z,18.93
2018-08-18T21:55:11.338Z,18.76
2018-08-18T21:57:52.743Z,18.83
2018-08-18T22:00:21.403Z,18.85
2018-08-18T22:02:49.774Z,18.77
2018-08-18T22:05:17.916Z,18.87
2018-08-18T22:07:51.349Z,18.49
2018-08-18T22:10:20.513Z,18.46
2018-08-18T22:12:53.474Z,18.32
2018-08-18T22:15:22.459Z,18.27
2018-08-18T22:17:51.864Z,18.16
2018-08-18T22:20:21.208Z,18.17
2018-08-18T22:22:51.988Z,18.16
2018-08-18T22:25:20.597Z,18.23
2018-08-18T22:27:52.260Z,18.36
2018-08-18T22:30:22.164Z,18.37
2018-08-18T22:32:50.719Z,18.29
2018-08-18T22:35:18.904Z,18.27
2018-08-18T22:37:47.415Z,18.30
2018-08-18T22:40:15.910Z,18.24
2018-08-18T22:42:44.096Z,18.32
2018-08-18T22:45:23.257Z,18.37
2018-08-18T22:47:51.701Z,18.17
2018-08-18T22:50:20.103Z,18.19
2018-08-18T22:52:50.533Z,18.24
2018-08-18T22:55:18.916Z,18.13
2018-08-18T22:57:52.469Z,18.07
2018-08-18T23:00:21.057Z,18.08
2018-08-18T23:02:49.189Z,17.96
2018-08-18T23:05:18.362Z,17.90
2018-08-18T23:07:49.454Z,17.91
2018-08-18T23:10:18.055Z,17.80
2018-08-18T23:12:46.247Z,17.96
2018-08-18T23:15:14.361Z,17.91
2018-08-18T23:17:42.477Z,17.88
2018-08-18T23:20:10.558Z,17.95
2018-08-18T23:22:52.741Z,17.87
2018-08-18T23:25:21.119Z,17.51
2018-08-18T23:27:49.289Z,17.36
2018-08-18T23:30:21.575Z,17.48
2018-08-18T23:32:49.733Z,17.50
2018-08-18T23:35:17.806Z,17.30
2018-08-18T23:37:45.934Z,17.34
2018-08-18T23:40:14.021Z,17.27
2018-08-18T23:42:42.224Z,17.28
2018-08-18T23:45:10.291Z,17.20
2018-08-18T23:47:38.353Z,17.22
2018-08-18T23:50:06.484Z,17.25
2018-08-18T23:52:48.005Z,17.28
2018-08-18T23:55:16.092Z,17.08
2018-08-18T23:57:44.276Z,17.11
